sensor_id;sensor_type;location;lat;lon;timestamp;pressure;altitude;pressure_sealevel;temperature;humidity
45078;BME280;60508;42.622;25.416;2022-09-20T00:01:06;96542.09;;;16.22;41.70
45078;BME280;60508;42.622;25.416;2022-09-20T00:03:33;96553.47;;;16.24;41.75
45078;BME280;60508;42.622;25.416;2022-09-20T00:06:00;96559.09;;;16.28;41.67
45078;BME280;60508;42.622;25.416;2022-09-20T00:08:27;96565.13;;;16.24;41.53
45078;BME280;60508;42.622;25.416;2022-09-20T00:11:00;96567.59;;;16.21;41.77
45078;BME280;60508;42.622;25.416;2022-09-20T00:13:27;96554.84;;;16.21;41.76
45078;BME280;60508;42.622;25.416;2022-09-20T00:15:54;96553.47;;;16.24;41.92
45078;BME280;60508;42.622;25.416;2022-09-20T00:18:20;96561.13;;;16.17;42.37
45078;BME280;60508;42.622;25.416;2022-09-20T00:20:47;96557.91;;;16.10;42.69
45078;BME280;60508;42.622;25.416;2022-09-20T00:23:14;96563.72;;;15.98;42.96
45078;BME280;60508;42.622;25.416;2022-09-20T00:25:41;96551.38;;;15.81;43.41
45078;BME280;60508;42.622;25.416;2022-09-20T00:28:08;96546.56;;;15.68;43.73
45078;BME280;60508;42.622;25.416;2022-09-20T00:30:35;96525.84;;;15.48;43.80
45078;BME280;60508;42.622;25.416;2022-09-20T00:33:01;96546.09;;;15.61;44.10
45078;BME280;60508;42.622;25.416;2022-09-20T00:35:27;96533.91;;;15.58;43.85
45078;BME280;60508;42.622;25.416;2022-09-20T00:37:54;96530.66;;;15.56;44.32
45078;BME280;60508;42.622;25.416;2022-09-20T00:40:21;96531.19;;;15.58;44.07
45078;BME280;60508;42.622;25.416;2022-09-20T00:42:48;96539.59;;;15.57;43.90
45078;BME280;60508;42.622;25.416;2022-09-20T00:47:47;96535.66;;;15.44;44.00
45078;BME280;60508;42.622;25.416;2022-09-20T00:53:13;96531.94;;;15.29;44.51
45078;BME280;60508;42.622;25.416;2022-09-20T00:55:58;96526.84;;;15.18;45.10
45078;BME280;60508;42.622;25.416;2022-09-20T00:58:27;96525.84;;;15.08;45.13
45078;BME280;60508;42.622;25.416;2022-09-20T01:00:55;96519.09;;;15.01;45.33
45078;BME280;60508;42.622;25.416;2022-09-20T01:03:25;96518.56;;;14.93;46.07
45078;BME280;60508;42.622;25.416;2022-09-20T01:05:52;96517.84;;;14.83;46.51
45078;BME280;60508;42.622;25.416;2022-09-20T01:08:19;96511.91;;;14.75;46.82
45078;BME280;60508;42.622;25.416;2022-09-20T01:10:46;96508.63;;;14.84;47.05
45078;BME280;60508;42.622;25.416;2022-09-20T01:13:12;96512.13;;;14.89;46.72
45078;BME280;60508;42.622;25.416;2022-09-20T01:15:39;96504.31;;;14.83;46.83
45078;BME280;60508;42.622;25.416;2022-09-20T01:18:06;96506.47;;;14.86;46.92
45078;BME280;60508;42.622;25.416;2022-09-20T01:20:41;96510.78;;;14.87;46.94
45078;BME280;60508;42.622;25.416;2022-09-20T01:23:44;96515.09;;;14.88;47.34
45078;BME280;60508;42.622;25.416;2022-09-20T01:31:41;96513.84;;;14.65;48.33
45078;BME280;60508;42.622;25.416;2022-09-20T01:34:10;96517.09;;;14.67;47.44
45078;BME280;60508;42.622;25.416;2022-09-20T01:36:43;96519.78;;;14.67;47.29
45078;BME280;60508;42.622;25.416;2022-09-20T01:42:11;96521.94;;;14.70;47.10
45078;BME280;60508;42.622;25.416;2022-09-20T01:44:56;96523.25;;;14.72;47.35
45078;BME280;60508;42.622;25.416;2022-09-20T01:51:05;96520.59;;;14.62;47.68
45078;BME280;60508;42.622;25.416;2022-09-20T02:17:13;96535.75;;;14.48;48.84
45078;BME280;60508;42.622;25.416;2022-09-20T02:19:49;96533.84;;;14.64;48.91
45078;BME280;60508;42.622;25.416;2022-09-20T02:22:25;96534.66;;;14.59;48.67
45078;BME280;60508;42.622;25.416;2022-09-20T02:25:13;96528.16;;;14.65;48.12
45078;BME280;60508;42.622;25.416;2022-09-20T02:30:46;96522.78;;;14.45;48.55
45078;BME280;60508;42.622;25.416;2022-09-20T02:39:09;96533.59;;;14.45;47.80
45078;BME280;60508;42.622;25.416;2022-09-20T02:49:44;96539.06;;;14.29;48.74
45078;BME280;60508;42.622;25.416;2022-09-20T02:55:26;96543.38;;;14.20;48.50
45078;BME280;60508;42.622;25.416;2022-09-20T03:06:19;96543.91;;;14.17;46.27
45078;BME280;60508;42.622;25.416;2022-09-20T03:17:47;96541.75;;;13.57;46.83
45078;BME280;60508;42.622;25.416;2022-09-20T03:40:02;96565.06;;;13.00;45.96
45078;BME280;60508;42.622;25.416;2022-09-20T03:42:22;96565.28;;;12.93;46.09
45078;BME280;60508;42.622;25.416;2022-09-20T04:04:54;96590.81;;;12.70;46.04
45078;BME280;60508;42.622;25.416;2022-09-20T04:21:27;96587.69;;;12.94;48.80
45078;BME280;60508;42.622;25.416;2022-09-20T04:24:17;96596.16;;;13.23;46.06
45078;BME280;60508;42.622;25.416;2022-09-20T04:26:49;96599.88;;;13.02;44.05
45078;BME280;60508;42.622;25.416;2022-09-20T04:29:46;96604.13;;;12.87;44.61
45078;BME280;60508;42.622;25.416;2022-09-20T04:32:18;96603.00;;;12.83;44.49
45078;BME280;60508;42.622;25.416;2022-09-20T04:37:42;96598.75;;;12.92;44.00
45078;BME280;60508;42.622;25.416;2022-09-20T04:40:14;96594.94;;;12.88;43.40
45078;BME280;60508;42.622;25.416;2022-09-20T04:51:50;96597.19;;;13.02;42.06
45078;BME280;60508;42.622;25.416;2022-09-20T05:00:20;96619.13;;;13.26;40.92
45078;BME280;60508;42.622;25.416;2022-09-20T05:04:12;96621.88;;;13.36;40.60
45078;BME280;60508;42.622;25.416;2022-09-20T05:09:27;96615.97;;;13.49;39.99
45078;BME280;60508;42.622;25.416;2022-09-20T05:17:43;96617.00;;;13.33;40.54
45078;BME280;60508;42.622;25.416;2022-09-20T05:20:28;96608.38;;;13.36;40.71
45078;BME280;60508;42.622;25.416;2022-09-20T05:26:08;96618.31;;;13.30;41.72
45078;BME280;60508;42.622;25.416;2022-09-20T05:29:06;96618.91;;;13.32;41.66
45078;BME280;60508;42.622;25.416;2022-09-20T05:40:05;96622.22;;;13.60;41.67
45078;BME280;60508;42.622;25.416;2022-09-20T05:42:55;96621.69;;;13.68;41.72
45078;BME280;60508;42.622;25.416;2022-09-20T05:48:04;96617.66;;;13.97;40.86
45078;BME280;60508;42.622;25.416;2022-09-20T05:56:01;96622.25;;;14.32;40.49
45078;BME280;60508;42.622;25.416;2022-09-20T06:04:13;96617.41;;;14.09;40.70
45078;BME280;60508;42.622;25.416;2022-09-20T06:14:46;96626.03;;;13.75;40.65
45078;BME280;60508;42.622;25.416;2022-09-20T06:17:49;96626.56;;;13.87;41.02
45078;BME280;60508;42.622;25.416;2022-09-20T06:20:32;96611.47;;;13.96;39.99
45078;BME280;60508;42.622;25.416;2022-09-20T06:23:02;96621.72;;;14.10;40.52
45078;BME280;60508;42.622;25.416;2022-09-20T06:25:48;96616.34;;;14.15;40.10
45078;BME280;60508;42.622;25.416;2022-09-20T06:28:41;96624.72;;;14.13;39.85
45078;BME280;60508;42.622;25.416;2022-09-20T06:31:08;96610.13;;;14.24;39.87
45078;BME280;60508;42.622;25.416;2022-09-20T06:33:52;96611.47;;;14.42;39.57
45078;BME280;60508;42.622;25.416;2022-09-20T06:36:34;96614.69;;;14.65;38.45
45078;BME280;60508;42.622;25.416;2022-09-20T06:42:15;96622.38;;;15.23;37.72
45078;BME280;60508;42.622;25.416;2022-09-20T06:44:41;96624.41;;;15.47;37.78
45078;BME280;60508;42.622;25.416;2022-09-20T06:47:12;96626.25;;;15.57;37.12
45078;BME280;60508;42.622;25.416;2022-09-20T06:49:38;96629.75;;;15.62;37.17
45078;BME280;60508;42.622;25.416;2022-09-20T06:52:14;96629.25;;;15.55;37.12
45078;BME280;60508;42.622;25.416;2022-09-20T06:54:44;96627.19;;;15.31;37.18
45078;BME280;60508;42.622;25.416;2022-09-20T06:57:14;96625.63;;;15.20;38.16
45078;BME280;60508;42.622;25.416;2022-09-20T06:59:40;96629.66;;;15.23;38.36
45078;BME280;60508;42.622;25.416;2022-09-20T07:02:06;96642.38;;;15.22;38.08
45078;BME280;60508;42.622;25.416;2022-09-20T07:04:33;96642.06;;;15.39;37.79
45078;BME280;60508;42.622;25.416;2022-09-20T07:07:03;96644.72;;;15.49;36.94
45078;BME280;60508;42.622;25.416;2022-09-20T07:09:29;96637.13;;;15.51;37.12
45078;BME280;60508;42.622;25.416;2022-09-20T07:11:56;96658.47;;;15.58;36.91
45078;BME280;60508;42.622;25.416;2022-09-20T07:14:25;96667.34;;;15.69;36.34
45078;BME280;60508;42.622;25.416;2022-09-20T07:16:52;96668.53;;;15.52;36.91
45078;BME280;60508;42.622;25.416;2022-09-20T07:19:18;96677.25;;;15.34;37.84
45078;BME280;60508;42.622;25.416;2022-09-20T07:21:44;96666.47;;;15.24;37.77
45078;BME280;60508;42.622;25.416;2022-09-20T07:24:10;96668.09;;;15.30;37.45
45078;BME280;60508;42.622;25.416;2022-09-20T07:26:37;96666.16;;;15.30;37.96
45078;BME280;60508;42.622;25.416;2022-09-20T07:29:04;96686.50;;;15.28;38.24
45078;BME280;60508;42.622;25.416;2022-09-20T07:31:32;96672.63;;;15.45;38.14
45078;BME280;60508;42.622;25.416;2022-09-20T07:33:58;96664.16;;;15.62;37.62
45078;BME280;60508;42.622;25.416;2022-09-20T07:36:24;96672.81;;;15.64;37.61
45078;BME280;60508;42.622;25.416;2022-09-20T07:38:51;96677.88;;;15.76;37.73
45078;BME280;60508;42.622;25.416;2022-09-20T07:41:19;96677.31;;;15.84;37.59
45078;BME280;60508;42.622;25.416;2022-09-20T07:43:45;96665.94;;;15.87;37.28
45078;BME280;60508;42.622;25.416;2022-09-20T07:46:11;96676.16;;;16.00;37.16
45078;BME280;60508;42.622;25.416;2022-09-20T07:48:40;96676.50;;;16.28;37.13
45078;BME280;60508;42.622;25.416;2022-09-20T07:51:11;96689.00;;;16.24;36.39
45078;BME280;60508;42.622;25.416;2022-09-20T07:53:38;96676.16;;;16.40;36.83
45078;BME280;60508;42.622;25.416;2022-09-20T07:56:08;96675.53;;;16.48;36.46
45078;BME280;60508;42.622;25.416;2022-09-20T07:58:35;96676.84;;;16.56;36.23
45078;BME280;60508;42.622;25.416;2022-09-20T08:01:05;96676.94;;;16.46;36.39
45078;BME280;60508;42.622;25.416;2022-09-20T08:03:32;96674.34;;;16.59;36.31
45078;BME280;60508;42.622;25.416;2022-09-20T08:06:04;96672.69;;;16.64;36.50
45078;BME280;60508;42.622;25.416;2022-09-20T08:08:32;96673.97;;;16.71;36.16
45078;BME280;60508;42.622;25.416;2022-09-20T08:11:06;96676.56;;;16.87;36.11
45078;BME280;60508;42.622;25.416;2022-09-20T08:13:43;96674.09;;;16.90;35.83
45078;BME280;60508;42.622;25.416;2022-09-20T08:16:10;96685.81;;;16.86;35.93
45078;BME280;60508;42.622;25.416;2022-09-20T08:18:43;96678.09;;;16.98;36.15
45078;BME280;60508;42.622;25.416;2022-09-20T08:21:12;96677.75;;;17.29;35.69
45078;BME280;60508;42.622;25.416;2022-09-20T08:23:40;96671.97;;;17.36;35.14
45078;BME280;60508;42.622;25.416;2022-09-20T08:26:09;96678.22;;;17.36;35.55
45078;BME280;60508;42.622;25.416;2022-09-20T08:28:37;96662.34;;;17.24;34.83
45078;BME280;60508;42.622;25.416;2022-09-20T08:31:08;96669.69;;;17.24;34.47
45078;BME280;60508;42.622;25.416;2022-09-20T08:33:35;96674.25;;;17.28;35.05
45078;BME280;60508;42.622;25.416;2022-09-20T08:36:10;96667.41;;;17.31;35.08
45078;BME280;60508;42.622;25.416;2022-09-20T08:38:37;96669.38;;;17.49;35.25
45078;BME280;60508;42.622;25.416;2022-09-20T08:41:10;96668.72;;;17.58;34.95
45078;BME280;60508;42.622;25.416;2022-09-20T08:43:45;96679.22;;;17.88;34.73
45078;BME280;60508;42.622;25.416;2022-09-20T08:46:17;96678.47;;;18.21;33.56
45078;BME280;60508;42.622;25.416;2022-09-20T08:48:44;96673.19;;;18.63;33.18
45078;BME280;60508;42.622;25.416;2022-09-20T08:51:13;96679.88;;;18.70;33.17
45078;BME280;60508;42.622;25.416;2022-09-20T08:53:50;96658.81;;;19.78;31.72
45078;BME280;60508;42.622;25.416;2022-09-20T08:56:18;96681.81;;;20.22;30.13
45078;BME280;60508;42.622;25.416;2022-09-20T08:58:44;96673.19;;;20.66;29.68
45078;BME280;60508;42.622;25.416;2022-09-20T09:01:20;96661.06;;;21.52;28.17
45078;BME280;60508;42.622;25.416;2022-09-20T09:03:49;96671.28;;;22.04;27.49
45078;BME280;60508;42.622;25.416;2022-09-20T09:06:18;96665.50;;;22.75;27.05
45078;BME280;60508;42.622;25.416;2022-09-20T09:08:46;96660.25;;;23.47;26.30
45078;BME280;60508;42.622;25.416;2022-09-20T09:11:16;96666.81;;;24.57;25.02
45078;BME280;60508;42.622;25.416;2022-09-20T09:16:15;96664.31;;;24.64;24.42
45078;BME280;60508;42.622;25.416;2022-09-20T09:18:43;96654.75;;;25.16;23.78
45078;BME280;60508;42.622;25.416;2022-09-20T09:21:27;96650.50;;;25.93;22.54
45078;BME280;60508;42.622;25.416;2022-09-20T09:24:01;96659.03;;;26.69;21.84
45078;BME280;60508;42.622;25.416;2022-09-20T09:26:35;96657.06;;;25.39;22.82
45078;BME280;60508;42.622;25.416;2022-09-20T09:29:16;96656.81;;;25.31;23.30
45078;BME280;60508;42.622;25.416;2022-09-20T09:31:47;96646.00;;;25.02;23.92
45078;BME280;60508;42.622;25.416;2022-09-20T09:36:51;96655.72;;;24.32;24.55
45078;BME280;60508;42.622;25.416;2022-09-20T09:41:53;96659.16;;;23.48;25.82
45078;BME280;60508;42.622;25.416;2022-09-20T09:44:26;96657.38;;;22.96;26.03
45078;BME280;60508;42.622;25.416;2022-09-20T09:46:53;96646.53;;;22.35;27.25
45078;BME280;60508;42.622;25.416;2022-09-20T09:49:22;96645.72;;;21.33;28.88
45078;BME280;60508;42.622;25.416;2022-09-20T09:54:47;96659.44;;;20.34;29.93
45078;BME280;60508;42.622;25.416;2022-09-20T10:08:18;96656.38;;;20.36;30.21
45078;BME280;60508;42.622;25.416;2022-09-20T10:22:05;96639.59;;;20.65;29.33
45078;BME280;60508;42.622;25.416;2022-09-20T10:27:38;96636.72;;;20.93;29.02
45078;BME280;60508;42.622;25.416;2022-09-20T10:30:13;96637.69;;;20.97;28.77
45078;BME280;60508;42.622;25.416;2022-09-20T10:38:10;96626.59;;;21.42;28.69
45078;BME280;60508;42.622;25.416;2022-09-20T10:40:49;96624.00;;;22.30;27.81
45078;BME280;60508;42.622;25.416;2022-09-20T11:11:09;96610.69;;;26.15;23.45
45078;BME280;60508;42.622;25.416;2022-09-20T11:16:18;96612.38;;;27.24;20.77
45078;BME280;60508;42.622;25.416;2022-09-20T11:18:55;96620.06;;;26.99;20.92
45078;BME280;60508;42.622;25.416;2022-09-20T11:21:27;96618.44;;;26.25;21.27
45078;BME280;60508;42.622;25.416;2022-09-20T11:24:27;96618.19;;;27.50;20.16
45078;BME280;60508;42.622;25.416;2022-09-20T11:26:57;96621.34;;;28.59;19.05
45078;BME280;60508;42.622;25.416;2022-09-20T11:29:29;96608.97;;;28.95;18.97
45078;BME280;60508;42.622;25.416;2022-09-20T11:32:10;96608.34;;;28.83;19.36
45078;BME280;60508;42.622;25.416;2022-09-20T11:34:51;96616.94;;;28.77;18.89
45078;BME280;60508;42.622;25.416;2022-09-20T11:37:19;96619.59;;;31.29;16.95
45078;BME280;60508;42.622;25.416;2022-09-20T11:39:50;96617.84;;;32.14;16.23
45078;BME280;60508;42.622;25.416;2022-09-20T11:42:24;96614.94;;;32.87;15.86
45078;BME280;60508;42.622;25.416;2022-09-20T11:44:53;96616.22;;;33.22;15.38
45078;BME280;60508;42.622;25.416;2022-09-20T11:47:30;96610.94;;;32.70;15.52
45078;BME280;60508;42.622;25.416;2022-09-20T11:56:00;96607.09;;;32.09;15.90
45078;BME280;60508;42.622;25.416;2022-09-20T11:58:30;96605.31;;;31.23;15.94
45078;BME280;60508;42.622;25.416;2022-09-20T12:00:58;96595.78;;;30.83;16.30
45078;BME280;60508;42.622;25.416;2022-09-20T12:05:57;96608.56;;;34.02;14.57
45078;BME280;60508;42.622;25.416;2022-09-20T12:08:32;96600.09;;;36.03;13.01
45078;BME280;60508;42.622;25.416;2022-09-20T12:11:02;96610.34;;;34.66;13.87
45078;BME280;60508;42.622;25.416;2022-09-20T12:13:33;96604.03;;;35.18;13.96
45078;BME280;60508;42.622;25.416;2022-09-20T12:16:05;96598.53;;;35.07;13.16
45078;BME280;60508;42.622;25.416;2022-09-20T12:21:12;96595.63;;;32.17;14.89
45078;BME280;60508;42.622;25.416;2022-09-20T12:28:56;96604.50;;;36.72;12.51
45078;BME280;60508;42.622;25.416;2022-09-20T12:36:41;96592.66;;;36.27;12.48
45078;BME280;60508;42.622;25.416;2022-09-20T12:44:42;96589.16;;;33.70;14.38
45078;BME280;60508;42.622;25.416;2022-09-20T12:58:15;96579.13;;;32.68;15.21
45078;BME280;60508;42.622;25.416;2022-09-20T13:00:46;96589.97;;;33.41;14.59
45078;BME280;60508;42.622;25.416;2022-09-20T13:03:36;96596.66;;;31.91;15.41
45078;BME280;60508;42.622;25.416;2022-09-20T13:08:59;96585.94;;;30.89;15.63
45078;BME280;60508;42.622;25.416;2022-09-20T13:11:37;96574.63;;;30.00;16.36
45078;BME280;60508;42.622;25.416;2022-09-20T13:19:57;96582.09;;;29.42;17.64
45078;BME280;60508;42.622;25.416;2022-09-20T13:22:41;96574.38;;;30.43;16.41
45078;BME280;60508;42.622;25.416;2022-09-20T13:25:13;96584.53;;;31.55;15.47
45078;BME280;60508;42.622;25.416;2022-09-20T13:30:28;96574.41;;;31.84;15.44
45078;BME280;60508;42.622;25.416;2022-09-20T13:33:14;96585.97;;;31.97;15.10
45078;BME280;60508;42.622;25.416;2022-09-20T13:35:43;96583.41;;;32.44;14.98
45078;BME280;60508;42.622;25.416;2022-09-20T13:38:13;96594.19;;;32.56;14.69
45078;BME280;60508;42.622;25.416;2022-09-20T13:40:45;96577.47;;;32.49;14.61
45078;BME280;60508;42.622;25.416;2022-09-20T13:46:08;96589.91;;;32.91;14.53
45078;BME280;60508;42.622;25.416;2022-09-20T13:48:35;96593.38;;;32.48;14.86
45078;BME280;60508;42.622;25.416;2022-09-20T13:51:01;96590.88;;;32.21;15.00
45078;BME280;60508;42.622;25.416;2022-09-20T13:53:28;96590.25;;;32.71;14.32
45078;BME280;60508;42.622;25.416;2022-09-20T13:55:57;96592.81;;;32.10;14.54
45078;BME280;60508;42.622;25.416;2022-09-20T13:58:33;96598.31;;;33.34;13.80
45078;BME280;60508;42.622;25.416;2022-09-20T14:01:04;96595.09;;;33.07;14.20
45078;BME280;60508;42.622;25.416;2022-09-20T14:03:32;96590.09;;;32.21;14.77
45078;BME280;60508;42.622;25.416;2022-09-20T14:06:00;96589.78;;;31.67;15.85
45078;BME280;60508;42.622;25.416;2022-09-20T14:08:33;96594.09;;;31.61;15.82
45078;BME280;60508;42.622;25.416;2022-09-20T14:13:43;96597.47;;;29.66;17.83
45078;BME280;60508;42.622;25.416;2022-09-20T14:16:09;96588.03;;;30.28;17.61
45078;BME280;60508;42.622;25.416;2022-09-20T14:18:39;96596.25;;;31.34;16.49
45078;BME280;60508;42.622;25.416;2022-09-20T14:21:09;96605.69;;;31.22;16.81
45078;BME280;60508;42.622;25.416;2022-09-20T14:23:55;96608.13;;;29.64;18.19
45078;BME280;60508;42.622;25.416;2022-09-20T14:28:49;96602.00;;;29.25;18.33
45078;BME280;60508;42.622;25.416;2022-09-20T14:31:26;96597.19;;;30.02;17.62
45078;BME280;60508;42.622;25.416;2022-09-20T14:34:00;96596.69;;;30.57;17.22
45078;BME280;60508;42.622;25.416;2022-09-20T14:36:28;96604.75;;;30.05;17.38
45078;BME280;60508;42.622;25.416;2022-09-20T14:39:02;96606.88;;;30.15;17.60
45078;BME280;60508;42.622;25.416;2022-09-20T14:41:36;96598.06;;;30.06;17.46
45078;BME280;60508;42.622;25.416;2022-09-20T14:44:05;96614.16;;;29.70;18.17
45078;BME280;60508;42.622;25.416;2022-09-20T14:46:34;96604.91;;;29.59;18.48
45078;BME280;60508;42.622;25.416;2022-09-20T14:51:52;96606.22;;;29.68;18.36
45078;BME280;60508;42.622;25.416;2022-09-20T14:54:27;96612.75;;;29.80;17.70
45078;BME280;60508;42.622;25.416;2022-09-20T14:56:56;96614.81;;;29.37;18.33
45078;BME280;60508;42.622;25.416;2022-09-20T14:59:27;96615.84;;;29.52;18.12
45078;BME280;60508;42.622;25.416;2022-09-20T15:04:24;96613.25;;;28.31;18.26
45078;BME280;60508;42.622;25.416;2022-09-20T15:06:54;96613.22;;;27.40;18.99
45078;BME280;60508;42.622;25.416;2022-09-20T15:09:21;96614.91;;;27.45;19.24
45078;BME280;60508;42.622;25.416;2022-09-20T15:12:03;96615.38;;;28.37;18.72
45078;BME280;60508;42.622;25.416;2022-09-20T15:14:29;96621.41;;;28.86;18.33
45078;BME280;60508;42.622;25.416;2022-09-20T15:16:57;96615.63;;;28.32;18.89
45078;BME280;60508;42.622;25.416;2022-09-20T15:19:24;96620.13;;;27.50;18.61
45078;BME280;60508;42.622;25.416;2022-09-20T15:21:50;96609.75;;;27.11;18.87
45078;BME280;60508;42.622;25.416;2022-09-20T15:24:15;96621.06;;;26.50;20.32
45078;BME280;60508;42.622;25.416;2022-09-20T15:26:44;96607.81;;;26.68;20.26
45078;BME280;60508;42.622;25.416;2022-09-20T15:29:17;96619.06;;;26.63;20.33
45078;BME280;60508;42.622;25.416;2022-09-20T15:31:45;96610.97;;;26.26;20.33
45078;BME280;60508;42.622;25.416;2022-09-20T15:34:11;96621.03;;;25.07;21.70
45078;BME280;60508;42.622;25.416;2022-09-20T15:36:39;96609.94;;;23.73;23.05
45078;BME280;60508;42.622;25.416;2022-09-20T15:39:06;96623.25;;;22.85;24.49
45078;BME280;60508;42.622;25.416;2022-09-20T15:41:33;96611.19;;;22.69;24.73
45078;BME280;60508;42.622;25.416;2022-09-20T15:44:01;96617.22;;;22.01;25.32
45078;BME280;60508;42.622;25.416;2022-09-20T15:46:28;96630.41;;;21.81;26.00
45078;BME280;60508;42.622;25.416;2022-09-20T15:48:54;96623.47;;;21.75;25.95
45078;BME280;60508;42.622;25.416;2022-09-20T15:51:21;96611.97;;;21.47;26.22
45078;BME280;60508;42.622;25.416;2022-09-20T15:53:55;96635.13;;;21.01;27.23
45078;BME280;60508;42.622;25.416;2022-09-20T15:56:27;96628.16;;;20.86;27.07
45078;BME280;60508;42.622;25.416;2022-09-20T15:58:55;96625.44;;;20.18;28.23
45078;BME280;60508;42.622;25.416;2022-09-20T16:01:29;96620.88;;;19.54;29.45
45078;BME280;60508;42.622;25.416;2022-09-20T16:03:56;96624.91;;;19.43;29.69
45078;BME280;60508;42.622;25.416;2022-09-20T16:06:23;96626.44;;;19.07;30.35
45078;BME280;60508;42.622;25.416;2022-09-20T16:08:50;96623.78;;;18.88;30.33
45078;BME280;60508;42.622;25.416;2022-09-20T16:11:19;96640.06;;;18.74;30.82
45078;BME280;60508;42.622;25.416;2022-09-20T16:13:46;96632.63;;;18.47;31.27
45078;BME280;60508;42.622;25.416;2022-09-20T16:16:12;96633.72;;;18.13;31.72
45078;BME280;60508;42.622;25.416;2022-09-20T16:18:40;96637.88;;;18.11;31.82
45078;BME280;60508;42.622;25.416;2022-09-20T16:21:25;96644.94;;;17.93;32.08
45078;BME280;60508;42.622;25.416;2022-09-20T16:23:53;96644.97;;;17.68;31.99
45078;BME280;60508;42.622;25.416;2022-09-20T16:26:19;96637.00;;;17.53;32.27
45078;BME280;60508;42.622;25.416;2022-09-20T16:28:47;96639.94;;;17.38;32.47
45078;BME280;60508;42.622;25.416;2022-09-20T16:34:03;96638.09;;;17.09;32.96
45078;BME280;60508;42.622;25.416;2022-09-20T16:36:33;96642.97;;;17.07;33.32
45078;BME280;60508;42.622;25.416;2022-09-20T16:38:59;96645.69;;;17.07;33.33
45078;BME280;60508;42.622;25.416;2022-09-20T16:41:27;96652.81;;;17.03;33.86
45078;BME280;60508;42.622;25.416;2022-09-20T16:43:53;96654.72;;;17.02;33.89
45078;BME280;60508;42.622;25.416;2022-09-20T16:46:24;96651.88;;;16.88;34.58
45078;BME280;60508;42.622;25.416;2022-09-20T16:48:55;96662.16;;;16.91;34.84
45078;BME280;60508;42.622;25.416;2022-09-20T16:51:24;96666.38;;;16.73;35.19
45078;BME280;60508;42.622;25.416;2022-09-20T16:53:54;96666.09;;;16.75;35.43
45078;BME280;60508;42.622;25.416;2022-09-20T16:56:21;96671.88;;;16.63;35.79
45078;BME280;60508;42.622;25.416;2022-09-20T16:58:48;96661.03;;;16.63;35.69
45078;BME280;60508;42.622;25.416;2022-09-20T17:01:15;96668.38;;;16.63;35.84
45078;BME280;60508;42.622;25.416;2022-09-20T17:03:42;96666.59;;;16.77;35.23
45078;BME280;60508;42.622;25.416;2022-09-20T17:06:10;96673.78;;;16.63;35.26
45078;BME280;60508;42.622;25.416;2022-09-20T17:08:37;96687.91;;;16.59;35.39
45078;BME280;60508;42.622;25.416;2022-09-20T17:11:12;96681.41;;;16.60;35.47
45078;BME280;60508;42.622;25.416;2022-09-20T17:13:40;96680.63;;;16.55;35.82
45078;BME280;60508;42.622;25.416;2022-09-20T17:16:09;96687.41;;;16.57;36.25
45078;BME280;60508;42.622;25.416;2022-09-20T17:18:36;96671.81;;;16.39;36.38
45078;BME280;60508;42.622;25.416;2022-09-20T17:21:11;96686.38;;;16.48;36.93
45078;BME280;60508;42.622;25.416;2022-09-20T17:23:39;96692.97;;;16.37;37.39
45078;BME280;60508;42.622;25.416;2022-09-20T17:26:16;96691.47;;;16.20;38.01
45078;BME280;60508;42.622;25.416;2022-09-20T17:28:46;96706.69;;;16.11;38.32
45078;BME280;60508;42.622;25.416;2022-09-20T17:31:18;96699.44;;;16.01;39.00
45078;BME280;60508;42.622;25.416;2022-09-20T17:33:45;96701.06;;;16.02;38.70
45078;BME280;60508;42.622;25.416;2022-09-20T17:36:14;96698.66;;;16.01;38.73
45078;BME280;60508;42.622;25.416;2022-09-20T17:38:41;96704.63;;;15.98;38.83
45078;BME280;60508;42.622;25.416;2022-09-20T17:43:39;96704.09;;;15.96;38.81
45078;BME280;60508;42.622;25.416;2022-09-20T17:46:18;96715.22;;;15.94;38.45
45078;BME280;60508;42.622;25.416;2022-09-20T17:48:54;96711.75;;;15.83;38.57
45078;BME280;60508;42.622;25.416;2022-09-20T17:51:25;96714.19;;;15.85;38.63
45078;BME280;60508;42.622;25.416;2022-09-20T17:53:52;96725.31;;;15.78;39.03
45078;BME280;60508;42.622;25.416;2022-09-20T17:56:18;96719.91;;;15.73;39.25
45078;BME280;60508;42.622;25.416;2022-09-20T17:58:48;96724.47;;;15.73;39.00
45078;BME280;60508;42.622;25.416;2022-09-20T18:01:16;96736.16;;;15.78;38.83
45078;BME280;60508;42.622;25.416;2022-09-20T18:03:44;96735.63;;;15.76;39.32
45078;BME280;60508;42.622;25.416;2022-09-20T18:06:12;96729.34;;;15.76;39.32
45078;BME280;60508;42.622;25.416;2022-09-20T18:08:38;96732.88;;;15.71;39.36
45078;BME280;60508;42.622;25.416;2022-09-20T18:11:05;96737.22;;;15.72;39.23
45078;BME280;60508;42.622;25.416;2022-09-20T18:13:31;96731.59;;;15.63;39.68
45078;BME280;60508;42.622;25.416;2022-09-20T18:15:57;96734.56;;;15.57;39.51
45078;BME280;60508;42.622;25.416;2022-09-20T18:18:23;96725.91;;;15.55;39.80
45078;BME280;60508;42.622;25.416;2022-09-20T18:20:49;96737.03;;;15.48;40.32
45078;BME280;60508;42.622;25.416;2022-09-20T18:23:15;96726.19;;;15.53;39.98
45078;BME280;60508;42.622;25.416;2022-09-20T18:25:41;96734.31;;;15.53;40.07
45078;BME280;60508;42.622;25.416;2022-09-20T18:28:26;96731.59;;;15.53;39.85
45078;BME280;60508;42.622;25.416;2022-09-20T18:31:00;96739.97;;;15.57;40.02
45078;BME280;60508;42.622;25.416;2022-09-20T18:33:28;96737.28;;;15.57;39.44
45078;BME280;60508;42.622;25.416;2022-09-20T18:36:03;96741.63;;;15.58;39.68
45078;BME280;60508;42.622;25.416;2022-09-20T18:38:29;96744.03;;;15.64;39.28
45078;BME280;60508;42.622;25.416;2022-09-20T18:40:58;96741.59;;;15.63;39.20
45078;BME280;60508;42.622;25.416;2022-09-20T18:43:29;96748.66;;;15.64;39.17
45078;BME280;60508;42.622;25.416;2022-09-20T18:45:56;96743.78;;;15.61;38.87